Terminal Aerodrome Forecast
Issued by NWS Tuscon, AZ

Home | Current Version | Previous Version | Text Only | Print | Product List | Glossary On
Versions: 1 2 3 4 5 6 7 8 9 10 11 12 13 14
170
FTUS45 KTWC 272320
TAFDUG
TAF
KDUG 272320Z 2800/2824 25011G18KT P6SM OVC100
     FM280200 33006KT P6SM BKN100
     FM280800 VRB03KT P6SM SCT150
     FM282000 27008KT P6SM SCT100=

USA.gov is the U.S. government's official web portal to all federal, state and local government web resources and services.